Seaside, Oregon
Current Conditions -  °F | °C
As of 12:55 PM on Saturday 22 Nov 2014 (Local Time) from KAST Reporting Station
Few Clouds Few Clouds  
Wind Chill: 54°   Ceiling: Unl
Heat Index: 54°   Visibility: 10mi
Dew Point: 44°   Wind: 13mph
Humidity: 69%   Direction: 280°W
Pressure: 29.94"   Gusts: 20mph
Location:  45.99°N, 123.91°W
Report Text: KAST 222055Z AUTO 28011G17KT 10SM FEW060 12/07 A2994 RMK AO2 SLP138 60001 T01220067 51043
Loading
Personal Weather Stations






























Interactive Weather Map New forecast layout! Learn more

10-Day Weather Forecast

Advertisements
Track Severe Weather on mobile